Time;durP1;ratioP1;P1;durP2;ratioP2;P2;SDS_P1;SDS_P2;PMS_P1;PMS_P2;Temp;Humidity;BMP_temperature;BMP_pressure;BME280_temperature;BME280_humidity;BME280_pressure;Samples;Min_cycle;Max_cycle;Signal;HPM_P1;HPM_P2
2021/06/10 07:29:22;;;;;;;3.93;3.03;;;;;;;24.88;41.64;102085.59;5015036;27;20336;-70
2021/06/10 07:31:47;;;;;;;6.33;3.13;;;;;;;24.90;41.58;102085.56;4845562;28;78913;-69
2021/06/10 07:34:14;;;;;;;3.80;3.07;;;;;;;24.90;41.69;102083.81;4998475;28;20222;-70
2021/06/10 07:36:39;;;;;;;5.10;3.30;;;;;;;24.86;41.50;102090.00;4992948;28;20191;-71
2021/06/10 07:39:07;;;;;;;5.23;3.80;;;;;;;24.82;41.48;102085.69;4990015;28;20179;-72
2021/06/10 07:41:32;;;;;;;5.80;2.90;;;;;;;24.87;41.54;102086.47;5011479;28;20391;-71
2021/06/10 07:43:57;;;;;;;5.67;3.43;;;;;;;24.87;41.35;102088.25;4998707;28;20700;-71
2021/06/10 07:46:23;;;;;;;4.80;3.40;;;;;;;24.90;41.49;102089.03;5010673;28;20283;-72
2021/06/10 07:48:48;;;;;;;4.50;2.90;;;;;;;24.92;41.49;102086.41;5003854;28;20720;-71
2021/06/10 07:51:14;;;;;;;7.10;4.00;;;;;;;24.92;41.37;102094.28;5006463;28;20229;-71
2021/06/10 07:53:39;;;;;;;7.13;3.73;;;;;;;24.92;41.38;102091.66;4991296;28;20253;-72
2021/06/10 07:56:06;;;;;;;6.33;3.50;;;;;;;24.94;41.21;102093.34;5009206;28;20675;-71
2021/06/10 07:58:32;;;;;;;7.47;3.37;;;;;;;24.91;41.32;102090.78;5006676;28;20195;-69
2021/06/10 08:00:58;;;;;;;3.93;3.27;;;;;;;24.91;41.40;102090.78;5008878;28;20203;-69
2021/06/10 08:03:23;;;;;;;5.87;3.87;;;;;;;24.93;41.67;102093.38;5005349;28;20540;-70
2021/06/10 08:05:49;;;;;;;7.87;3.20;;;;;;;24.98;41.20;102095.00;5011137;28;20249;-71
2021/06/10 08:08:15;;;;;;;3.40;3.10;;;;;;;25.01;41.04;102094.94;5009091;28;20234;-70
2021/06/10 08:10:41;;;;;;;6.13;2.70;;;;;;;25.03;41.18;102093.16;5007962;28;20692;-71
2021/06/10 08:13:08;;;;;;;5.87;3.23;;;;;;;25.04;41.33;102096.66;5009124;28;20191;-71
2021/06/10 08:15:35;;;;;;;4.63;3.30;;;;;;;25.10;41.01;102102.63;5007495;28;20230;-68
2021/06/10 08:18:00;;;;;;;9.87;3.20;;;;;;;25.05;41.20;102101.84;5005977;28;20599;-70
2021/06/10 08:20:27;;;;;;;5.90;3.80;;;;;;;25.10;41.28;102099.16;5005591;28;20192;-70
2021/06/10 08:22:55;;;;;;;5.03;3.67;;;;;;;25.13;40.97;102104.31;5005673;28;20171;-70
2021/06/10 08:25:20;;;;;;;5.90;3.60;;;;;;;25.11;41.06;102096.50;5004865;28;20259;-72
2021/06/10 08:27:46;;;;;;;5.43;3.70;;;;;;;25.11;41.06;102095.63;5014706;28;20286;-71
2021/06/10 08:30:13;;;;;;;6.53;4.10;;;;;;;25.11;40.69;102096.50;5009107;28;20615;-70
2021/06/10 08:32:38;;;;;;;5.13;4.10;;;;;;;25.08;40.85;102093.94;5025695;28;20686;-69
2021/06/10 08:35:04;;;;;;;7.97;3.67;;;;;;;25.10;40.55;102091.28;5010594;28;20230;-68
2021/06/10 08:37:31;;;;;;;5.80;3.73;;;;;;;25.11;40.85;102095.63;5025161;28;20178;-69
2021/06/10 08:39:57;;;;;;;6.30;4.07;;;;;;;25.13;40.71;102097.31;5017407;28;20273;-70
2021/06/10 08:42:23;;;;;;;9.10;4.13;;;;;;;25.12;40.51;102095.59;5012337;28;20637;-69
2021/06/10 08:44:49;;;;;;;4.37;3.57;;;;;;;25.13;40.43;102104.31;5013695;28;20219;-70
2021/06/10 08:47:15;;;;;;;5.40;4.03;;;;;;;25.12;40.46;102095.59;5012271;28;20553;-69
2021/06/10 08:49:44;;;;;;;4.37;3.97;;;;;;;25.12;40.52;102098.22;5011405;28;20586;-69
2021/06/10 08:52:11;;;;;;;4.60;3.53;;;;;;;25.14;40.69;102101.66;5011999;28;20198;-69
2021/06/10 08:54:37;;;;;;;7.30;4.10;;;;;;;25.17;40.74;102101.63;5011863;28;20636;-69
2021/06/10 08:57:03;;;;;;;4.77;3.90;;;;;;;25.19;40.47;102096.34;5012158;28;20179;-69
2021/06/10 08:59:28;;;;;;;8.50;5.13;;;;;;;25.20;40.90;102098.06;5012852;28;20198;-68
2021/06/10 09:01:54;;;;;;;7.13;4.70;;;;;;;25.20;40.13;102092.81;4995846;28;20569;-69
2021/06/10 09:04:19;;;;;;;5.80;4.47;;;;;;;25.14;40.32;102093.78;5011817;28;20648;-69
2021/06/10 09:06:47;;;;;;;5.90;4.90;;;;;;;25.11;40.11;102098.25;5012849;28;20199;-69
2021/06/10 09:09:12;;;;;;;5.77;5.00;;;;;;;25.12;40.10;102100.84;5011068;28;20578;-68
2021/06/10 09:11:38;;;;;;;6.37;4.50;;;;;;;25.12;40.24;102098.22;4995338;28;20191;-71
2021/06/10 09:14:08;;;;;;;8.33;5.00;;;;;;;25.13;40.20;102097.31;5011321;28;20187;-72
2021/06/10 09:16:38;;;;;;;12.53;5.50;;;;;;;25.14;40.05;102103.44;5011815;28;20181;-65
2021/06/10 09:19:08;;;;;;;7.87;5.13;;;;;;;25.15;40.47;102095.56;5011367;28;20171;-69
2021/06/10 09:21:34;;;;;;;11.13;6.50;;;;;;;25.23;40.81;102095.38;5008403;28;20184;-68
2021/06/10 09:24:18;;;;;;;6.30;4.60;;;;;;;25.27;40.69;102090.06;5009529;28;20191;-69
2021/06/10 09:27:05;;;;;;;9.77;6.57;;;;;;;25.33;41.39;102091.72;5012684;28;20179;-71
2021/06/10 09:29:49;;;;;;;6.03;3.90;;;;;;;25.44;41.42;102089.72;5012303;28;20210;-72
2021/06/10 09:32:30;;;;;;;7.07;4.53;;;;;;;25.49;41.06;102091.34;5012359;28;20178;-72
2021/06/10 09:35:08;;;;;;;6.50;5.00;;;;;;;25.53;40.92;102090.38;5011477;28;20186;-74
2021/06/10 09:37:42;;;;;;;8.73;5.80;;;;;;;25.56;41.06;102085.03;5007181;28;20222;-73
2021/06/10 09:40:13;;;;;;;7.27;5.03;;;;;;;25.59;41.12;102087.63;4991380;28;20196;-72
2021/06/10 09:42:40;;;;;;;8.00;5.80;;;;;;;25.61;41.03;102083.22;4991669;28;20553;-74
2021/06/10 09:45:09;;;;;;;6.50;4.73;;;;;;;25.61;41.11;102080.59;4992502;28;20182;-74
2021/06/10 09:47:40;;;;;;;7.63;6.37;;;;;;;25.64;40.90;102082.28;4991091;28;20262;-72
2021/06/10 09:50:27;;;;;;;6.47;5.87;;;;;;;25.64;41.01;102077.03;4990787;28;20214;-69
2021/06/10 09:52:55;;;;;;;7.57;6.50;;;;;;;25.62;41.40;102076.19;4991265;28;20214;-69
2021/06/10 09:55:34;;;;;;;7.20;5.00;;;;;;;25.64;40.98;102074.41;4990814;28;20182;-70
2021/06/10 09:58:18;;;;;;;5.80;5.20;;;;;;;25.66;41.06;102076.09;4992671;28;20224;-72
2021/06/10 10:00:49;;;;;;;7.17;5.10;;;;;;;25.67;40.74;102072.56;4990580;28;20778;-71
2021/06/10 10:03:24;;;;;;;6.77;4.87;;;;;;;25.67;41.40;102075.19;4992070;28;20672;-70
2021/06/10 10:05:49;;;;;;;9.73;6.07;;;;;;;25.66;40.77;102075.22;4991894;28;20175;-70
2021/06/10 10:08:15;;;;;;;9.33;7.13;;;;;;;25.62;40.91;102078.81;4990632;28;20203;-69
2021/06/10 10:10:41;;;;;;;9.50;6.70;;;;;;;25.61;40.87;102074.47;4990475;28;20199;-69
2021/06/10 10:13:09;;;;;;;9.30;7.63;;;;;;;25.59;40.33;102078.84;4990621;28;20660;-69
2021/06/10 10:15:35;;;;;;;10.03;7.93;;;;;;;25.55;40.54;102078.06;4990534;28;20176;-70
2021/06/10 10:18:01;;;;;;;17.27;9.23;;;;;;;25.50;40.69;102079.94;4990134;28;20552;-70
2021/06/10 10:20:26;;;;;;;17.63;9.03;;;;;;;25.51;40.79;102079.03;4989831;28;20198;-72
2021/06/10 10:22:52;;;;;;;8.27;6.50;;;;;;;25.49;40.78;102074.72;4990179;28;20263;-70
2021/06/10 10:25:19;;;;;;;9.47;6.17;;;;;;;25.48;40.92;102070.38;4991514;28;20528;-72
2021/06/10 10:27:45;;;;;;;10.27;5.80;;;;;;;25.46;41.08;102069.56;4990603;28;20622;-70
2021/06/10 10:30:10;;;;;;;9.10;5.37;;;;;;;25.46;40.98;102072.19;4990390;28;20196;-73
2021/06/10 10:32:41;;;;;;;11.63;8.10;;;;;;;25.49;40.82;102078.22;4991244;28;20186;-71
2021/06/10 10:35:21;;;;;;;9.27;7.90;;;;;;;25.47;40.77;102066.88;4990245;28;20279;-71
2021/06/10 10:37:47;;;;;;;14.00;6.37;;;;;;;25.51;40.86;102067.69;4991907;28;20171;-71
2021/06/10 10:40:20;;;;;;;9.43;8.07;;;;;;;25.51;40.82;102068.53;4992905;28;20278;-73
2021/06/10 10:42:45;;;;;;;11.47;7.63;;;;;;;25.51;40.77;102067.69;4992601;28;20200;-72
2021/06/10 10:45:26;;;;;;;8.13;7.37;;;;;;;25.51;40.58;102070.31;4973953;28;20215;-71
2021/06/10 10:48:00;;;;;;;8.50;6.60;;;;;;;25.51;40.89;102060.66;4990206;28;20246;-72
2021/06/10 10:50:41;;;;;;;12.07;8.47;;;;;;;25.51;40.64;102063.28;4988869;28;20246;-72
2021/06/10 10:53:08;;;;;;;9.90;8.67;;;;;;;25.51;41.17;102060.66;4972850;28;20626;-71
2021/06/10 10:55:34;;;;;;;12.93;10.33;;;;;;;25.51;40.80;102058.03;4988697;28;20398;-72
2021/06/10 10:58:03;;;;;;;14.33;10.60;;;;;;;25.52;40.85;102061.53;4989639;28;20301;-72
2021/06/10 11:00:54;;;;;;;14.37;10.53;;;;;;;25.53;40.96;102065.88;4989381;28;20210;-74
2021/06/10 11:03:25;;;;;;;13.17;9.73;;;;;;;25.54;41.11;102055.34;4989984;28;20178;-74
2021/06/10 11:05:51;;;;;;;10.53;9.43;;;;;;;25.55;41.32;102057.09;4991257;28;20608;-77
2021/06/10 11:08:17;;;;;;;12.33;8.97;;;;;;;25.56;40.78;102064.06;4973560;28;20203;-77
2021/06/10 11:10:52;;;;;;;10.87;9.40;;;;;;;25.58;40.90;102056.16;4973124;28;20257;-74
2021/06/10 11:13:19;;;;;;;10.10;9.00;;;;;;;25.61;41.40;102056.97;4991029;28;20182;-76
2021/06/10 11:15:51;;;;;;;11.47;8.50;;;;;;;25.62;41.34;102055.19;4973583;28;20234;-77
2021/06/10 11:18:50;;;;;;;12.73;11.10;;;;;;;25.62;41.22;102045.56;4973474;28;20183;-77
2021/06/10 11:21:40;;;;;;;11.70;8.33;;;;;;;25.63;41.13;102043.78;4978523;28;20218;-75
2021/06/10 11:24:21;;;;;;;11.70;7.83;;;;;;;25.61;41.21;102043.84;4989963;28;20615;-76
2021/06/10 11:26:49;;;;;;;8.30;7.50;;;;;;;25.61;41.35;102043.84;4990821;28;20175;-77
2021/06/10 11:29:15;;;;;;;9.87;7.80;;;;;;;25.63;41.28;102055.16;4989452;28;20290;-76
2021/06/10 11:31:41;;;;;;;9.10;6.53;;;;;;;25.65;41.07;102040.22;4989689;28;20172;-75
2021/06/10 11:34:29;;;;;;;8.63;6.80;;;;;;;25.67;41.13;102043.69;4973740;28;20258;-76
2021/06/10 11:36:55;;;;;;;8.53;6.80;;;;;;;25.71;40.82;102050.59;4989817;28;20224;-75
2021/06/10 11:39:20;;;;;;;10.73;8.13;;;;;;;25.70;40.46;102042.75;4973209;28;20207;-75
2021/06/10 11:41:45;;;;;;;7.80;7.10;;;;;;;25.72;40.91;102046.19;4973432;28;20184;-75
2021/06/10 11:44:11;;;;;;;8.23;7.33;;;;;;;25.70;40.61;102046.22;4973357;28;20645;-76
2021/06/10 11:46:39;;;;;;;8.23;7.37;;;;;;;25.75;40.79;102039.13;4973450;28;20189;-72
2021/06/10 11:49:07;;;;;;;9.67;7.50;;;;;;;25.86;41.31;102037.09;4973587;28;20196;-72
2021/06/10 11:51:35;;;;;;;12.43;9.13;;;;;;;25.96;41.58;102029.88;4989614;28;20179;-72
2021/06/10 11:54:10;;;;;;;13.17;9.53;;;;;;;25.97;41.30;102035.09;4990515;28;20266;-72
2021/06/10 11:56:35;;;;;;;11.03;9.50;;;;;;;25.96;41.26;102033.38;4989165;28;20206;-72
2021/06/10 11:59:17;;;;;;;12.30;10.97;;;;;;;25.97;40.82;102032.47;4988952;28;20210;-71
2021/06/10 12:02:02;;;;;;;12.30;8.60;;;;;;;25.99;40.64;102032.44;4988867;28;20183;-72
2021/06/10 12:04:28;;;;;;;9.03;8.03;;;;;;;25.94;41.08;102029.94;4988962;28;20322;-71
2021/06/10 12:07:04;;;;;;;10.30;9.10;;;;;;;25.96;40.62;102029.88;5005300;28;20176;-71
2021/06/10 12:09:29;;;;;;;11.07;8.50;;;;;;;25.97;41.09;102019.34;4990457;28;20302;-71
2021/06/10 12:11:55;;;;;;;8.97;7.63;;;;;;;26.01;40.69;102026.25;4990222;28;20180;-71
2021/06/10 12:14:20;;;;;;;10.13;8.10;;;;;;;26.04;40.61;102018.28;4989812;28;20668;-70
2021/06/10 12:16:45;;;;;;;9.20;8.30;;;;;;;26.07;40.92;102017.34;4992994;28;20172;-70
2021/06/10 12:19:14;;;;;;;10.97;9.57;;;;;;;26.03;40.47;102013.06;4964224;28;20202;-72
2021/06/10 12:21:40;;;;;;;10.10;8.93;;;;;;;26.03;40.50;102013.94;5004552;28;20183;-69
2021/06/10 12:24:06;;;;;;;10.10;9.10;;;;;;;26.02;40.14;102012.19;4973077;28;20574;-71
2021/06/10 12:26:31;;;;;;;10.00;8.73;;;;;;;26.02;39.92;102012.19;4978794;28;20176;-70
2021/06/10 12:28:59;;;;;;;10.20;9.07;;;;;;;26.04;40.06;102010.41;5008092;28;20211;-71
2021/06/10 12:31:26;;;;;;;8.77;7.87;;;;;;;26.07;39.70;102005.06;4999292;28;20235;-71
2021/06/10 12:33:58;;;;;;;8.10;7.30;;;;;;;26.09;39.92;102002.41;4991993;28;20230;-69
2021/06/10 12:36:37;;;;;;;8.73;7.70;;;;;;;26.10;39.51;102009.41;4992098;28;20176;-70
2021/06/10 12:39:10;;;;;;;10.50;6.70;;;;;;;26.12;39.77;102003.22;5020443;28;20171;-72
2021/06/10 12:41:43;;;;;;;9.60;8.43;;;;;;;26.11;39.49;102008.50;5032622;28;20189;-69
2021/06/10 12:44:20;;;;;;;9.80;8.27;;;;;;;26.14;39.55;102006.66;5031333;28;20261;-71
2021/06/10 12:46:57;;;;;;;7.60;6.90;;;;;;;26.18;39.68;101997.78;5031494;28;20165;-72
2021/06/10 12:49:39;;;;;;;7.60;6.80;;;;;;;26.22;39.60;101996.81;5025389;28;20203;-72
2021/06/10 12:52:12;;;;;;;7.47;6.47;;;;;;;26.24;39.68;101992.34;5012295;28;20182;-71
2021/06/10 12:54:39;;;;;;;7.83;6.97;;;;;;;26.26;39.89;101987.94;5014244;28;20270;-71
2021/06/10 12:57:04;;;;;;;6.72;6.03;;;;;;;26.27;39.82;101986.16;5011628;28;20186;-71
2021/06/10 12:59:36;;;;;;;6.30;5.80;;;;;;;26.30;39.54;101988.72;5010958;28;20187;-70
2021/06/10 13:02:02;;;;;;;5.97;5.47;;;;;;;26.33;39.96;101992.13;5011312;28;20656;-71
2021/06/10 13:04:51;;;;;;;5.77;5.13;;;;;;;26.35;39.76;101987.69;5011210;28;20747;-69
2021/06/10 13:07:39;;;;;;;7.50;5.57;;;;;;;26.39;39.29;101989.31;5002108;28;20278;-71
2021/06/10 13:10:05;;;;;;;6.65;5.90;;;;;;;26.43;39.34;101992.75;5010758;28;20211;-69
2021/06/10 13:12:32;;;;;;;6.55;5.93;;;;;;;26.47;38.88;101994.38;5010983;28;20729;-70
2021/06/10 13:15:14;;;;;;;6.53;5.93;;;;;;;26.48;39.10;101983.81;5006761;28;20255;-71
2021/06/10 13:17:57;;;;;;;6.40;5.80;;;;;;;26.47;39.09;101987.34;4991480;28;20247;-71
2021/06/10 13:20:50;;;;;;;7.03;5.70;;;;;;;26.49;39.05;101980.31;4974973;28;20279;-71
2021/06/10 13:23:16;;;;;;;5.83;5.20;;;;;;;26.51;39.01;101973.22;4992559;28;20182;-71
2021/06/10 13:25:43;;;;;;;6.95;5.50;;;;;;;26.54;39.21;101982.78;4991313;28;20300;-70
2021/06/10 13:28:28;;;;;;;5.40;4.80;;;;;;;26.56;38.83;101975.69;4992301;28;20739;-70
2021/06/10 13:31:10;;;;;;;6.13;5.53;;;;;;;26.60;38.80;101980.88;4991280;28;20202;-70
2021/06/10 13:33:35;;;;;;;6.15;5.55;;;;;;;26.59;38.80;101981.78;4991384;28;20179;-71
2021/06/10 13:36:05;;;;;;;6.82;4.97;;;;;;;26.63;38.58;101980.81;4991282;28;20183;-70
2021/06/10 13:38:30;;;;;;;5.60;5.10;;;;;;;26.67;38.75;101974.53;4991198;28;20164;-71
2021/06/10 13:40:55;;;;;;;6.05;5.50;;;;;;;26.70;38.34;101971.81;4991984;28;20199;-70
2021/06/10 13:43:20;;;;;;;6.53;5.47;;;;;;;26.72;38.34;101972.66;4974613;28;20657;-71
2021/06/10 13:45:46;;;;;;;8.68;5.68;;;;;;;26.75;38.18;101971.72;4999010;28;20179;-69
2021/06/10 13:48:11;;;;;;;7.70;7.00;;;;;;;26.76;38.03;101971.63;4994495;28;20241;-71
2021/06/10 13:50:36;;;;;;;7.13;6.32;;;;;;;26.79;38.02;101971.56;5009862;28;20208;-71
2021/06/10 13:53:02;;;;;;;7.93;6.30;;;;;;;26.77;38.25;101964.63;5011620;28;20552;-72
2021/06/10 13:55:27;;;;;;;7.72;6.88;;;;;;;26.76;37.76;101965.53;5011566;28;20179;-70
2021/06/10 13:57:53;;;;;;;9.20;6.07;;;;;;;26.81;37.72;101959.25;4998425;28;20180;-70
2021/06/10 14:00:22;;;;;;;10.70;6.53;;;;;;;26.87;39.00;101958.19;4991783;28;20236;-72
2021/06/10 14:02:47;;;;;;;7.25;6.50;;;;;;;26.91;38.06;101959.81;5010337;28;20175;-71
2021/06/10 14:05:12;;;;;;;8.07;5.82;;;;;;;26.90;37.87;101950.22;5011423;28;20179;-69
2021/06/10 14:07:38;;;;;;;6.35;5.57;;;;;;;26.93;37.93;101953.59;4993848;28;20626;-72
2021/06/10 14:10:03;;;;;;;8.20;6.63;;;;;;;26.98;37.90;101958.75;5011158;28;20313;-71
2021/06/10 14:12:28;;;;;;;6.35;5.78;;;;;;;26.99;37.36;101949.94;5009842;28;20248;-70
2021/06/10 14:14:54;;;;;;;7.10;6.38;;;;;;;27.00;37.78;101947.25;5009708;28;20215;-73
2021/06/10 14:17:19;;;;;;;7.70;6.38;;;;;;;27.02;37.61;101949.81;5009893;28;20262;-72
2021/06/10 14:19:44;;;;;;;5.97;5.35;;;;;;;27.04;37.54;101945.38;5010890;28;20190;-73
2021/06/10 14:22:10;;;;;;;7.45;6.63;;;;;;;27.06;37.29;101947.06;5009847;28;20179;-70
2021/06/10 14:24:41;;;;;;;8.45;6.70;;;;;;;27.12;36.95;101948.66;5011102;28;20254;-72
2021/06/10 14:27:06;;;;;;;6.40;5.80;;;;;;;27.09;37.48;101951.38;5009534;28;20535;-70
2021/06/10 14:32:19;;;;;;;6.65;6.05;;;;;;;27.05;37.40;101937.47;5011111;28;20240;-71
2021/06/10 14:34:52;;;;;;;6.90;5.43;;;;;;;27.07;37.13;101935.63;5011089;28;20160;-71
2021/06/10 14:37:18;;;;;;;5.80;5.18;;;;;;;27.08;37.80;101932.06;5010542;28;20537;-70
2021/06/10 14:39:44;;;;;;;6.35;5.75;;;;;;;27.10;37.28;101943.44;5009329;28;20206;-71
2021/06/10 14:42:11;;;;;;;6.25;5.40;;;;;;;27.12;37.01;101930.25;5010161;28;20171;-72
2021/06/10 14:44:36;;;;;;;5.93;5.43;;;;;;;27.13;37.43;101921.44;5008142;28;20606;-72
2021/06/10 14:47:02;;;;;;;5.97;5.18;;;;;;;27.15;37.26;101931.00;5009564;28;20174;-70
2021/06/10 14:49:28;;;;;;;5.78;5.28;;;;;;;27.18;37.41;101936.22;5009303;28;20254;-71
2021/06/10 14:51:53;;;;;;;5.80;5.03;;;;;;;27.24;37.99;101932.50;5008214;28;20178;-70
2021/06/10 14:54:18;;;;;;;5.80;5.20;;;;;;;27.25;38.30;101926.31;4990784;28;20586;-69
2021/06/10 14:56:44;;;;;;;7.00;5.57;;;;;;;27.21;38.01;101925.56;5001016;28;20480;-68
2021/06/10 14:59:09;;;;;;;9.45;5.80;;;;;;;27.27;37.91;101925.34;5004231;28;20179;-70
2021/06/10 15:01:34;;;;;;;5.55;4.97;;;;;;;27.42;37.73;101918.75;4992319;28;20258;-70
2021/06/10 15:04:00;;;;;;;8.90;5.72;;;;;;;27.39;37.57;101917.06;5009287;28;20221;-71
2021/06/10 15:06:25;;;;;;;6.32;5.10;;;;;;;27.43;37.77;101918.72;5003874;28;20628;-70
2021/06/10 15:08:51;;;;;;;5.80;5.03;;;;;;;27.35;38.23;101915.44;4989458;28;20198;-68
2021/06/10 15:11:18;;;;;;;5.22;4.72;;;;;;;27.48;37.51;101918.53;4990648;28;20218;-70
2021/06/10 15:13:43;;;;;;;5.47;4.75;;;;;;;27.47;37.51;101907.16;5007809;28;20671;-69
2021/06/10 15:16:08;;;;;;;9.23;5.30;;;;;;;27.42;37.73;101906.47;5007565;28;20183;-69
2021/06/10 15:18:34;;;;;;;5.70;4.82;;;;;;;27.52;37.60;101907.88;4990612;28;20547;-68
2021/06/10 15:20:59;;;;;;;5.72;5.05;;;;;;;27.51;37.23;101907.91;4990180;28;20254;-70
2021/06/10 15:23:24;;;;;;;6.03;5.07;;;;;;;27.55;37.60;101897.25;5006666;28;20189;-69
2021/06/10 15:26:57;;;;;;;7.20;5.35;;;;;;;27.29;37.67;101894.59;5060777;27;20324;-77
2021/06/10 15:29:23;;;;;;;6.00;5.50;;;;;;;27.22;38.06;101893.06;5035831;28;20214;-76
2021/06/10 15:31:48;;;;;;;6.47;5.88;;;;;;;27.26;37.85;101884.16;5033620;28;20185;-75
2021/06/10 15:34:13;;;;;;;6.45;5.80;;;;;;;27.27;37.79;101885.03;4970423;28;20361;-76
2021/06/10 15:36:39;;;;;;;6.57;5.78;;;;;;;27.29;37.58;101877.94;4956142;28;20307;-76
2021/06/10 15:39:04;;;;;;;6.85;5.28;;;;;;;27.27;37.73;101875.34;4966819;28;20269;-77
2021/06/10 15:41:30;;;;;;;7.65;5.95;;;;;;;27.25;37.57;101866.66;5022623;28;20186;-76
2021/06/10 15:43:55;;;;;;;6.75;5.40;;;;;;;27.32;38.16;101867.31;5032066;28;20265;-72
2021/06/10 15:46:20;;;;;;;7.97;5.97;;;;;;;27.21;37.59;101867.69;5033795;28;20704;-73
2021/06/10 15:48:45;;;;;;;7.85;5.55;;;;;;;27.23;38.08;101873.75;5029026;28;20170;-68
2021/06/10 15:51:11;;;;;;;5.78;4.85;;;;;;;27.29;38.45;101873.56;5047019;28;20259;-69
2021/06/10 15:53:36;;;;;;;6.05;5.50;;;;;;;27.56;41.92;101869.13;5031040;28;20687;-68
2021/06/10 15:56:04;;;;;;;7.90;5.28;;;;;;;27.67;37.48;101862.59;5026841;28;20186;-69
2021/06/10 15:58:30;;;;;;;6.45;5.75;;;;;;;27.66;37.59;101867.91;5045153;28;20178;-69
2021/06/10 16:00:55;;;;;;;7.70;5.60;;;;;;;27.53;37.69;101862.19;5044256;28;20197;-67
2021/06/10 16:03:21;;;;;;;6.13;5.18;;;;;;;27.46;37.75;101867.72;5045196;28;20173;-68
2021/06/10 16:05:46;;;;;;;7.32;5.20;;;;;;;27.42;38.55;101863.47;5027590;28;20198;-69
2021/06/10 16:08:12;;;;;;;6.60;5.72;;;;;;;27.43;38.62;101867.81;5025277;28;20262;-70
2021/06/10 16:10:37;;;;;;;12.80;9.88;;;;;;;27.44;38.11;101866.94;5026521;28;20204;-70
2021/06/10 16:13:02;;;;;;;12.95;9.07;;;;;;;27.42;37.80;101863.47;5027085;28;20585;-69
2021/06/10 16:15:28;;;;;;;11.30;9.23;;;;;;;27.38;37.82;101852.19;5025809;28;20673;-70
2021/06/10 16:17:53;;;;;;;14.43;11.07;;;;;;;27.37;38.26;101855.75;5026984;28;20183;-71
2021/06/10 16:20:19;;;;;;;14.52;10.57;;;;;;;27.36;37.71;101843.47;5025704;28;20187;-70
2021/06/10 16:22:45;;;;;;;12.98;9.35;;;;;;;27.38;38.15;101846.94;5033829;28;20189;-68
2021/06/10 16:25:13;;;;;;;11.20;9.18;;;;;;;27.42;38.56;101852.94;5038604;28;20201;-70
2021/06/10 16:27:40;;;;;;;11.05;9.23;;;;;;;27.42;37.87;101850.31;5046637;28;20178;-70
2021/06/10 16:30:07;;;;;;;12.30;9.77;;;;;;;27.39;38.20;101847.78;5053552;28;20297;-70
2021/06/10 16:32:32;;;;;;;14.98;12.75;;;;;;;27.35;37.93;101839.13;5065929;28;20181;-70
2021/06/10 16:34:58;;;;;;;24.52;21.42;;;;;;;27.40;37.63;101842.47;5064478;28;20219;-70
2021/06/10 16:37:23;;;;;;;24.88;22.10;;;;;;;27.38;37.84;101838.16;5057736;28;20231;-71
2021/06/10 16:39:48;;;;;;;27.55;24.63;;;;;;;27.33;38.16;101835.69;5052706;28;20254;-68
2021/06/10 16:42:15;;;;;;;44.08;39.28;;;;;;;27.35;37.93;101836.50;5031504;28;20654;-70
2021/06/10 16:44:41;;;;;;;42.30;37.80;;;;;;;27.33;38.05;101838.34;5032890;28;20186;-71
2021/06/10 16:47:06;;;;;;;33.28;27.42;;;;;;;27.35;38.79;101838.28;5030686;28;20620;-74
2021/06/10 16:50:59;;;;;;;26.27;22.95;;;;;;;27.42;38.50;101839.78;4999652;27;20550;-73
2021/06/10 16:53:24;;;;;;;26.75;23.70;;;;;;;25.41;39.37;101848.41;4961877;28;20240;-73
2021/06/10 16:55:49;;;;;;;25.83;23.15;;;;;;;23.99;42.94;101855.91;5014319;28;20199;-74
2021/06/10 16:58:16;;;;;;;26.75;23.95;;;;;;;23.68;43.21;101853.88;4986668;28;20567;-71
2021/06/10 17:00:47;;;;;;;25.33;20.15;;;;;;;25.66;41.52;101842.50;5004203;28;20199;-72
2021/06/10 17:05:37;;;;;;;19.08;17.30;;;;;;;26.81;39.55;101832.16;4997889;28;20182;-74
2021/06/10 17:08:04;;;;;;;18.52;16.63;;;;;;;26.94;39.33;101833.50;5002625;28;20192;-74
2021/06/10 17:10:31;;;;;;;17.48;15.77;;;;;;;27.03;39.72;101830.56;4988389;28;20215;-73
2021/06/10 17:12:57;;;;;;;17.30;15.00;;;;;;;27.12;39.61;101823.22;4989734;28;20180;-74
2021/06/10 17:15:22;;;;;;;16.13;14.02;;;;;;;27.23;39.76;101821.13;4988063;28;20187;-75
2021/06/10 17:17:48;;;;;;;14.07;12.65;;;;;;;27.29;38.87;101825.31;4981019;28;20185;-73
2021/06/10 17:20:16;;;;;;;14.38;11.82;;;;;;;27.33;39.14;101829.56;5011931;28;20286;-74
2021/06/10 17:22:41;;;;;;;13.10;11.82;;;;;;;27.38;38.94;101823.25;4961537;28;20216;-73
2021/06/10 17:25:08;;;;;;;12.02;10.88;;;;;;;27.36;39.04;101826.84;4987948;28;20272;-74
2021/06/10 17:27:34;;;;;;;11.38;10.38;;;;;;;27.38;39.60;101820.63;5025063;28;20203;-74
2021/06/10 17:29:59;;;;;;;14.20;11.55;;;;;;;27.43;39.90;101825.69;5026764;28;20237;-72
2021/06/10 17:32:25;;;;;;;13.15;10.85;;;;;;;27.49;39.76;101826.34;5001038;28;20669;-76
2021/06/10 17:34:50;;;;;;;12.48;11.20;;;;;;;27.47;39.32;101828.19;5007178;28;20712;-74
2021/06/10 17:37:16;;;;;;;11.38;10.38;;;;;;;27.47;39.47;101827.31;5023959;28;20592;-73
2021/06/10 17:39:41;;;;;;;11.75;10.43;;;;;;;27.46;39.27;101823.84;5005857;28;20198;-74
2021/06/10 17:42:07;;;;;;;10.70;9.52;;;;;;;27.46;39.67;101822.97;5007787;28;20649;-74
2021/06/10 17:44:33;;;;;;;10.35;9.32;;;;;;;27.45;39.35;101824.75;5023197;28;20801;-72
2021/06/10 17:46:58;;;;;;;10.57;9.57;;;;;;;27.46;40.00;101818.59;5025580;28;20187;-74
2021/06/10 17:49:23;;;;;;;10.45;9.38;;;;;;;27.45;39.96;101823.91;4998716;28;20214;-74
2021/06/10 17:51:49;;;;;;;9.63;8.77;;;;;;;27.44;39.71;101819.56;5012190;28;20553;-75
2021/06/10 17:54:14;;;;;;;9.82;8.85;;;;;;;27.43;40.37;101817.81;4991589;28;20179;-72
2021/06/10 17:56:40;;;;;;;10.45;9.45;;;;;;;27.48;40.02;101829.03;5017496;28;20224;-72
2021/06/10 17:59:05;;;;;;;9.80;8.82;;;;;;;27.46;39.91;101828.25;5025791;28;20248;-73
2021/06/10 18:01:30;;;;;;;10.27;9.30;;;;;;;27.43;39.92;101826.56;5017710;28;20198;-72
2021/06/10 18:03:57;;;;;;;10.55;8.40;;;;;;;27.46;40.23;101831.75;5014600;28;20178;-73
2021/06/10 18:06:23;;;;;;;10.60;9.38;;;;;;;27.46;40.66;101823.84;5022181;28;20187;-71
2021/06/10 18:08:48;;;;;;;11.52;8.55;;;;;;;27.46;40.18;101833.50;5006744;28;20192;-73
2021/06/10 18:11:16;;;;;;;8.93;8.02;;;;;;;27.40;40.64;101839.81;5039410;28;20571;-73
2021/06/10 18:13:41;;;;;;;10.57;9.23;;;;;;;27.38;40.55;101841.66;5011684;28;20233;-73
2021/06/10 18:16:06;;;;;;;9.30;8.50;;;;;;;27.34;40.84;101833.91;5014196;28;20175;-73
2021/06/10 18:18:32;;;;;;;8.88;7.97;;;;;;;27.26;40.40;101838.59;5018069;28;20233;-73
2021/06/10 18:20:57;;;;;;;9.57;8.73;;;;;;;27.21;40.77;101844.00;5017880;28;20199;-73
2021/06/10 18:23:22;;;;;;;9.27;8.32;;;;;;;27.13;41.00;101838.06;5032907;28;20220;-71
2021/06/10 18:25:48;;;;;;;9.70;8.75;;;;;;;27.11;40.87;101844.31;5049251;28;20190;-72
2021/06/10 18:28:13;;;;;;;9.50;8.60;;;;;;;27.08;40.69;101840.00;5017577;28;20183;-72
2021/06/10 18:30:39;;;;;;;9.52;8.52;;;;;;;27.05;40.94;101842.75;5017510;28;20754;-72
2021/06/10 18:33:05;;;;;;;10.80;8.98;;;;;;;27.02;40.77;101840.22;5050616;28;20191;-73
2021/06/10 18:35:32;;;;;;;10.18;9.07;;;;;;;26.98;40.93;101835.97;5034052;28;20679;-71
2021/06/10 18:37:57;;;;;;;9.57;8.18;;;;;;;26.96;41.09;101845.69;5017707;28;20179;-73
2021/06/10 18:40:22;;;;;;;9.10;8.30;;;;;;;26.91;41.13;101847.59;5017548;28;20199;-72
2021/06/10 18:42:48;;;;;;;10.15;9.25;;;;;;;26.86;40.93;101854.78;5011964;28;20214;-73
2021/06/10 18:45:14;;;;;;;10.52;8.38;;;;;;;26.83;40.76;101852.22;5050103;28;20187;-73
2021/06/10 18:47:40;;;;;;;10.55;8.63;;;;;;;26.82;40.78;101860.16;5049975;28;20728;-73
2021/06/10 18:50:07;;;;;;;10.00;8.80;;;;;;;26.78;40.90;101863.78;5016648;28;20234;-72
2021/06/10 18:52:36;;;;;;;8.90;8.10;;;;;;;26.76;41.19;101869.09;5017896;28;20266;-71
2021/06/10 18:55:02;;;;;;;9.73;8.80;;;;;;;26.71;40.85;101865.75;5048861;28;20172;-71
2021/06/10 18:57:27;;;;;;;8.85;8.05;;;;;;;26.66;40.89;101865.03;5017089;28;20189;-71
2021/06/10 18:59:52;;;;;;;9.45;8.55;;;;;;;26.59;40.96;101876.66;5015796;28;20209;-73
2021/06/10 19:02:18;;;;;;;9.18;7.75;;;;;;;26.56;41.08;101874.09;5032523;28;20562;-73